world map with HPA marked

HPA - Airport

This information may not be accurate or current and is not valid for navigation or flight planning. No warranty of fitness for any purpose is made or implied.

flag of Tonga

Donate via PayPal

Additional information is available on the NEW Great Circle Mapper

Location
City:  Lifuka, Ha'apai, Tonga
Name:Lifuka Island Airport (Salote Pilolevu Airport)
ICAO / IATA:NFTL / HPA

Details
Type:Airport (Aerodrome, Airfield)
Latitude:19°46'41"S (-19.777999)
Longitude:174°20'29"W (-174.341332)
Elevation:60 ft (18 m)
Runways:unknown number
Longest:2300 ft (701 m)

Time
Timezone:UTC+13 (DST+15)
Local Time:

Weather
METAR:NFTL  041200Z 10007KT 9999 FEW020 27/24 Q1008
TAF:NFTL  (expired)

Related Locations
Nearby:
Farthest:INF: 12415 mi / 19980 km
In Guezzam [In Guezzam Airport], 11, DZ

Find:

   beyond  
but within

Other Information
Maps:
Sources:

  


 


Great Circle Mapper   Great Circle Mapper
Great Circle Mapper FAQ   Great Circle Mapper FAQ
  Karl's Home Page
KLSē   KLSē Home
   GC on Facebook
Airlines of the World   Airlines of the World
Donate via PayPal


Copyright © 2004-2023, Karl L. Swartz. All rights reserved.
All trademarks mentioned herein belong to their respective owners.

Please see credits for attribution and copyright information.

Karl Swartz <karl@kls2.com>
  Powered by FreeBSD
Valid HTML 4.01!
Labeled with ICRA
hCard Microformat
Geo Microformat